Time;durP1;ratioP1;P1;durP2;ratioP2;P2;SDS_P1;SDS_P2;PMS_P1;PMS_P2;Temp;Humidity;BMP_temperature;BMP_pressure;BME280_temperature;BME280_humidity;BME280_pressure;Samples;Min_cycle;Max_cycle;Signal;HPM_P1;HPM_P2
2022/06/18 00:03:55;;;;;;;3.95;3.53;;;23.40;62.80;;;;;;10410958;28;20060;-59
2022/06/18 00:08:56;;;;;;;3.50;3.20;;;23.40;62.70;;;;;;10397810;28;20076;-59
2022/06/18 00:13:57;;;;;;;3.65;2.83;;;23.30;62.70;;;;;;10410061;28;20083;-59
2022/06/18 00:18:58;;;;;;;3.22;2.72;;;23.30;62.70;;;;;;10410819;28;20180;-59
2022/06/18 00:23:58;;;;;;;3.50;3.05;;;23.30;62.70;;;;;;10409790;28;20025;-58
2022/06/18 00:28:59;;;;;;;4.22;3.50;;;23.30;62.70;;;;;;10409300;28;20112;-58
2022/06/18 00:34:00;;;;;;;3.65;3.20;;;23.30;62.70;;;;;;10410733;28;20045;-58
2022/06/18 00:39:00;;;;;;;4.18;3.17;;;23.30;62.70;;;;;;10410681;28;20068;-59
2022/06/18 00:44:21;;;;;;;3.65;2.97;;;23.30;62.70;;;;;;10409512;28;20030;-59
2022/06/18 00:49:33;;;;;;;3.70;3.10;;;23.30;62.70;;;;;;10420282;28;20060;-59
2022/06/18 00:54:46;;;;;;;2.95;2.63;;;23.30;62.70;;;;;;10409046;28;20042;-59
2022/06/18 01:00:00;;;;;;;4.20;3.55;;;23.30;62.70;;;;;;10403299;28;20094;-59
2022/06/18 01:05:01;;;;;;;3.83;3.42;;;23.30;62.70;;;;;;10408302;28;20064;-58
2022/06/18 01:10:12;;;;;;;3.83;3.47;;;23.30;62.60;;;;;;10402875;28;20484;-58
2022/06/18 01:15:20;;;;;;;5.22;3.38;;;23.30;62.60;;;;;;10416295;28;20041;-59
2022/06/18 01:20:24;;;;;;;5.47;3.13;;;23.30;62.60;;;;;;10417154;28;20048;-58
2022/06/18 01:25:27;;;;;;;3.13;2.83;;;23.30;62.60;;;;;;10415962;28;20034;-58
2022/06/18 01:30:35;;;;;;;3.63;2.80;;;23.30;62.60;;;;;;10416751;28;20474;-59
2022/06/18 01:35:40;;;;;;;3.92;3.53;;;23.30;62.60;;;;;;10414791;28;20192;-59
2022/06/18 01:40:48;;;;;;;3.60;3.05;;;23.30;62.60;;;;;;10416482;28;20034;-59
2022/06/18 01:45:59;;;;;;;3.97;3.10;;;23.30;62.70;;;;;;10415014;28;20064;-58
2022/06/18 01:51:24;;;;;;;3.13;2.83;;;23.30;63.20;;;;;;10426686;28;20354;-59
2022/06/18 01:56:35;;;;;;;3.45;2.92;;;23.30;62.60;;;;;;10414398;28;20044;-58
2022/06/18 02:01:44;;;;;;;3.78;2.97;;;23.30;62.60;;;;;;10414273;28;20033;-58
2022/06/18 02:06:46;;;;;;;4.05;3.65;;;23.30;62.50;;;;;;10402005;28;20037;-58
2022/06/18 02:11:47;;;;;;;4.28;3.20;;;23.30;62.60;;;;;;10429295;28;20041;-59
2022/06/18 02:16:48;;;;;;;3.92;3.53;;;23.30;62.60;;;;;;10415692;28;20563;-58
2022/06/18 02:21:54;;;;;;;3.53;3.22;;;23.30;62.60;;;;;;10413031;28;20120;-58
2022/06/18 02:26:56;;;;;;;4.13;3.75;;;23.30;62.50;;;;;;10430002;28;20493;-59
2022/06/18 02:31:59;;;;;;;3.67;3.10;;;23.30;62.50;;;;;;10414339;28;20036;-59
2022/06/18 02:37:04;;;;;;;3.65;3.22;;;23.30;62.50;;;;;;10413054;28;20141;-59
2022/06/18 02:42:14;;;;;;;3.97;3.40;;;23.30;62.60;;;;;;10412630;28;20041;-59
2022/06/18 02:47:16;;;;;;;3.30;3.00;;;23.30;62.60;;;;;;10421132;28;20029;-59
2022/06/18 02:52:17;;;;;;;3.90;3.50;;;23.30;62.50;;;;;;10423690;28;20025;-58
2022/06/18 02:57:27;;;;;;;4.28;3.60;;;23.20;62.50;;;;;;10413849;28;20033;-58
2022/06/18 03:02:27;;;;;;;6.53;4.60;;;23.20;62.60;;;;;;10412034;28;20056;-59
2022/06/18 03:07:28;;;;;;;4.25;3.35;;;23.30;62.60;;;;;;10412933;28;20033;-58
2022/06/18 03:12:29;;;;;;;4.35;3.65;;;23.20;62.50;;;;;;10409049;28;20021;-59
2022/06/18 03:17:30;;;;;;;3.88;3.47;;;23.20;62.50;;;;;;10413423;28;20512;-58
2022/06/18 03:22:31;;;;;;;4.65;3.15;;;23.30;62.60;;;;;;10411944;28;20393;-59
2022/06/18 03:27:32;;;;;;;3.70;3.30;;;23.20;62.50;;;;;;10412099;28;20029;-59
2022/06/18 03:32:32;;;;;;;4.07;3.67;;;23.20;62.60;;;;;;10411655;28;20537;-59
2022/06/18 03:37:33;;;;;;;4.03;3.42;;;23.20;62.50;;;;;;10412686;28;20053;-59
2022/06/18 03:42:34;;;;;;;3.92;3.55;;;23.20;62.50;;;;;;10412700;28;20052;-58
2022/06/18 03:47:35;;;;;;;4.32;3.92;;;23.20;62.60;;;;;;10412470;28;20072;-58
2022/06/18 03:52:36;;;;;;;4.60;3.63;;;23.20;62.50;;;;;;10415571;28;20033;-59
2022/06/18 03:57:37;;;;;;;3.50;3.20;;;23.20;62.60;;;;;;10410653;28;20100;-58
2022/06/18 04:02:38;;;;;;;4.95;3.78;;;23.20;62.60;;;;;;10410069;28;20029;-58
2022/06/18 04:07:40;;;;;;;5.18;3.83;;;23.20;62.60;;;;;;10399080;28;20390;-58
2022/06/18 04:12:40;;;;;;;5.03;3.72;;;23.20;62.60;;;;;;10394885;28;20433;-59
2022/06/18 04:17:42;;;;;;;3.22;2.92;;;23.20;62.50;;;;;;10412877;28;20104;-59
2022/06/18 04:22:43;;;;;;;4.20;3.53;;;23.20;62.60;;;;;;10412255;28;20112;-59
2022/06/18 04:27:44;;;;;;;5.03;4.32;;;23.20;62.60;;;;;;10408358;28;20045;-58
2022/06/18 04:32:45;;;;;;;4.22;3.83;;;23.30;62.90;;;;;;10410942;28;20402;-59
2022/06/18 04:37:48;;;;;;;4.50;4.10;;;23.30;63.10;;;;;;10406676;28;20068;-59
2022/06/18 04:42:49;;;;;;;4.80;4.32;;;23.30;63.20;;;;;;10414374;28;20021;-59
2022/06/18 04:47:50;;;;;;;6.97;6.07;;;23.30;63.10;;;;;;10403303;28;20026;-58
2022/06/18 04:52:51;;;;;;;5.30;4.80;;;23.30;63.20;;;;;;10425053;28;20030;-59
2022/06/18 04:57:52;;;;;;;6.78;5.90;;;23.30;63.40;;;;;;10435322;28;20037;-59
2022/06/18 05:02:53;;;;;;;7.55;6.85;;;23.30;63.60;;;;;;10414379;28;20034;-58
2022/06/18 05:07:54;;;;;;;7.90;6.38;;;23.30;64.40;;;;;;10415345;28;20042;-57
2022/06/18 05:12:55;;;;;;;8.32;6.57;;;23.40;64.80;;;;;;10418605;28;20037;-57
2022/06/18 05:17:56;;;;;;;8.52;6.70;;;23.40;64.40;;;;;;10419267;28;20520;-56
2022/06/18 05:22:57;;;;;;;9.07;7.53;;;23.40;65.30;;;;;;10417439;28;20041;-56
2022/06/18 05:27:58;;;;;;;12.82;7.60;;;23.40;65.20;;;;;;10416666;28;20556;-57
2022/06/18 05:32:59;;;;;;;13.38;6.90;;;23.40;65.10;;;;;;10416333;28;20021;-57
2022/06/18 05:38:00;;;;;;;6.60;6.00;;;23.40;64.60;;;;;;10417981;28;20425;-58
2022/06/18 05:43:01;;;;;;;17.35;8.55;;;23.40;64.60;;;;;;10417607;28;20071;-56
2022/06/18 05:48:02;;;;;;;13.40;7.15;;;23.40;64.70;;;;;;10419744;28;20568;-57
2022/06/18 05:53:03;;;;;;;14.60;7.32;;;23.40;64.30;;;;;;10415194;28;20040;-57
2022/06/18 05:58:04;;;;;;;14.32;7.43;;;23.40;64.30;;;;;;10416507;28;20156;-57
2022/06/18 06:03:05;;;;;;;14.85;7.65;;;23.40;64.20;;;;;;10416822;28;20041;-56
2022/06/18 06:08:06;;;;;;;18.45;7.50;;;23.40;64.30;;;;;;10401604;28;20347;-56
2022/06/18 06:13:08;;;;;;;12.10;7.05;;;23.40;64.50;;;;;;10412778;28;20083;-58
2022/06/18 06:18:12;;;;;;;16.85;7.15;;;23.40;64.90;;;;;;10415958;28;20025;-58
2022/06/18 06:23:14;;;;;;;29.48;8.52;;;23.40;65.10;;;;;;10413930;28;20042;-58
2022/06/18 06:28:21;;;;;;;11.77;6.55;;;23.40;65.10;;;;;;10422301;28;20057;-59
2022/06/18 06:33:22;;;;;;;13.80;6.72;;;23.40;65.10;;;;;;10415882;28;20068;-60
2022/06/18 06:38:23;;;;;;;20.63;8.48;;;23.40;64.80;;;;;;10414925;28;20107;-59
2022/06/18 06:43:24;;;;;;;14.02;7.13;;;23.40;64.90;;;;;;10414014;28;20496;-60
2022/06/18 06:48:24;;;;;;;20.75;8.48;;;23.40;65.00;;;;;;10414959;28;20530;-59
2022/06/18 06:53:25;;;;;;;16.83;8.10;;;23.40;64.90;;;;;;10400140;28;20091;-59
2022/06/18 06:58:26;;;;;;;15.55;8.20;;;23.40;65.40;;;;;;10414376;28;20425;-57
2022/06/18 07:03:32;;;;;;;10.75;6.75;;;23.50;66.00;;;;;;10415015;28;20033;-59
2022/06/18 07:08:33;;;;;;;10.85;6.45;;;23.50;65.10;;;;;;10404563;28;20030;-58
2022/06/18 07:13:34;;;;;;;14.45;7.53;;;23.50;65.00;;;;;;10429300;28;20033;-58
2022/06/18 07:18:36;;;;;;;17.98;7.78;;;23.50;65.60;;;;;;10413123;28;20044;-58
2022/06/18 07:23:37;;;;;;;20.98;8.50;;;23.50;65.30;;;;;;10412675;28;20041;-58
2022/06/18 07:28:37;;;;;;;22.77;9.30;;;23.50;65.50;;;;;;10414084;28;20021;-58
2022/06/18 07:33:38;;;;;;;22.63;8.02;;;23.50;66.00;;;;;;10412990;28;20049;-59
2022/06/18 07:38:39;;;;;;;22.75;8.95;;;23.60;65.70;;;;;;10410818;28;20501;-59
2022/06/18 07:43:52;;;;;;;27.25;8.60;;;23.60;65.90;;;;;;10413693;28;20044;-59
2022/06/18 07:48:53;;;;;;;25.92;8.18;;;23.60;65.70;;;;;;10420683;28;20116;-59
2022/06/18 07:53:55;;;;;;;21.80;8.23;;;23.60;65.70;;;;;;10385778;28;20025;-61
2022/06/18 07:58:56;;;;;;;22.20;8.20;;;23.60;65.80;;;;;;10404731;28;20409;-60
2022/06/18 08:03:56;;;;;;;12.40;7.88;;;23.60;65.80;;;;;;10411195;28;20040;-59
2022/06/18 08:08:57;;;;;;;18.38;8.75;;;23.60;66.70;;;;;;10411197;28;20061;-59
2022/06/18 08:13:58;;;;;;;12.02;8.05;;;23.70;66.60;;;;;;10409532;28;20044;-58
2022/06/18 08:19:00;;;;;;;12.82;7.72;;;23.70;66.60;;;;;;10418380;28;20037;-58
2022/06/18 08:24:11;;;;;;;14.52;8.68;;;23.80;66.70;;;;;;10421234;28;20458;-58
2022/06/18 08:29:19;;;;;;;13.18;7.68;;;23.80;66.80;;;;;;10412064;28;20038;-57
2022/06/18 08:34:19;;;;;;;18.25;7.43;;;23.80;66.70;;;;;;10418066;28;20046;-58
2022/06/18 08:39:20;;;;;;;20.30;7.72;;;23.80;66.70;;;;;;10417691;28;20065;-58
2022/06/18 08:44:33;;;;;;;13.75;6.97;;;23.80;66.60;;;;;;10409098;28;20485;-57
2022/06/18 08:50:14;;;;;;;18.02;8.68;;;23.90;66.80;;;;;;10395644;28;20555;-58
2022/06/18 08:55:27;;;;;;;10.02;6.60;;;23.90;67.10;;;;;;10404247;28;20037;-57
2022/06/18 09:00:32;;;;;;;18.48;7.70;;;23.80;65.90;;;;;;10418057;28;20394;-54
2022/06/18 09:06:06;;;;;;;16.63;8.05;;;23.90;67.10;;;;;;10396930;28;20050;-57
2022/06/18 09:11:51;;;;;;;16.15;7.85;;;23.90;66.30;;;;;;10415126;28;20478;-56
2022/06/18 09:17:26;;;;;;;15.70;8.32;;;23.90;66.60;;;;;;10415576;28;20041;-56
2022/06/18 09:22:30;;;;;;;14.07;7.43;;;23.80;66.80;;;;;;10417623;28;20025;-57
2022/06/18 09:27:43;;;;;;;14.68;7.40;;;23.90;66.80;;;;;;10417330;28;20824;-57
2022/06/18 09:32:58;;;;;;;14.65;7.38;;;23.90;66.80;;;;;;10417157;28;20032;-56
2022/06/18 09:38:07;;;;;;;9.68;7.28;;;23.80;66.80;;;;;;10416440;28;20409;-57
2022/06/18 09:43:42;;;;;;;13.32;6.68;;;23.80;66.80;;;;;;10416587;28;20050;-58
2022/06/18 09:48:43;;;;;;;12.05;7.15;;;23.80;66.80;;;;;;10420535;28;20040;-57
2022/06/18 09:53:44;;;;;;;10.65;7.50;;;23.80;66.80;;;;;;10420130;28;20120;-57
2022/06/18 09:58:53;;;;;;;8.82;6.60;;;23.90;66.80;;;;;;10402156;28;20030;-57
2022/06/18 10:09:19;;;;;;;11.98;6.45;;;23.90;66.80;;;;;;10402793;28;19924;-57
2022/06/18 10:14:23;;;;;;;8.52;6.43;;;23.80;66.70;;;;;;10415523;28;20034;-57
2022/06/18 10:19:39;;;;;;;8.38;7.55;;;23.80;67.00;;;;;;10415261;28;20033;-57
2022/06/18 10:25:18;;;;;;;7.72;6.35;;;23.90;66.70;;;;;;10414658;28;20103;-57
2022/06/18 10:30:43;;;;;;;13.07;7.40;;;23.90;66.60;;;;;;10414644;28;20029;-57
2022/06/18 10:35:58;;;;;;;8.85;6.93;;;23.90;66.60;;;;;;10415499;28;20540;-56
2022/06/18 10:41:26;;;;;;;8.05;6.68;;;23.90;66.40;;;;;;10414988;28;20117;-56
2022/06/18 10:46:28;;;;;;;8.68;6.78;;;23.90;66.30;;;;;;10407025;28;20039;-56
2022/06/18 10:51:44;;;;;;;6.80;5.75;;;23.90;66.30;;;;;;10420997;28;20076;-57
2022/06/18 10:56:57;;;;;;;8.43;6.18;;;23.90;66.70;;;;;;10412368;28;20550;-59
2022/06/18 11:02:12;;;;;;;7.82;5.95;;;24.00;66.70;;;;;;10410311;28;20592;-55
2022/06/18 11:07:13;;;;;;;15.98;13.75;;;24.00;66.40;;;;;;10411264;28;20374;-57
2022/06/18 11:12:32;;;;;;;19.95;10.65;;;24.10;66.80;;;;;;10414645;28;20034;-58
2022/06/18 11:17:43;;;;;;;24.20;17.33;;;24.20;66.40;;;;;;10412743;28;20116;-58
2022/06/18 11:22:49;;;;;;;16.33;10.48;;;24.20;67.20;;;;;;10409955;28;20037;-58
2022/06/18 11:27:51;;;;;;;17.27;11.75;;;24.20;66.10;;;;;;10412107;28;20577;-58
2022/06/18 11:32:52;;;;;;;15.57;13.68;;;24.20;66.10;;;;;;10395834;28;20389;-63
2022/06/18 11:38:15;;;;;;;18.67;14.60;;;24.30;67.60;;;;;;10411068;28;20045;-61
2022/06/18 11:43:56;;;;;;;16.83;13.50;;;24.30;67.90;;;;;;10412511;28;20041;-63
2022/06/18 11:49:18;;;;;;;17.80;12.55;;;24.40;67.50;;;;;;10423197;28;20037;-61
2022/06/18 11:55:16;;;;;;;12.15;10.00;;;24.50;66.50;;;;;;10412377;28;20053;-61
2022/06/18 12:00:22;;;;;;;15.05;11.43;;;24.60;66.00;;;;;;10394645;28;20095;-61
2022/06/18 12:05:57;;;;;;;17.55;10.88;;;24.50;66.50;;;;;;10408510;28;20033;-60
2022/06/18 12:11:40;;;;;;;17.33;11.15;;;24.50;66.60;;;;;;10407243;28;20036;-58
2022/06/18 12:16:58;;;;;;;14.75;9.98;;;24.50;66.60;;;;;;10401571;28;20494;-58
2022/06/18 12:22:18;;;;;;;10.43;9.02;;;24.40;66.20;;;;;;10412927;28;20061;-56
2022/06/18 12:27:26;;;;;;;13.32;9.27;;;24.50;66.00;;;;;;10409438;28;20033;-57
2022/06/18 12:33:12;;;;;;;12.23;9.70;;;24.40;66.90;;;;;;10410073;28;20025;-57
2022/06/18 12:38:38;;;;;;;18.48;10.98;;;24.40;66.30;;;;;;10411975;28;20563;-56
2022/06/18 12:44:06;;;;;;;14.48;9.10;;;24.50;68.50;;;;;;10412309;28;20477;-57
2022/06/18 12:49:47;;;;;;;16.52;8.20;;;24.40;67.00;;;;;;10420600;28;20063;-59
2022/06/18 12:55:16;;;;;;;13.77;9.05;;;24.40;68.40;;;;;;10412139;28;20064;-57
2022/06/18 13:00:33;;;;;;;15.53;9.40;;;24.50;67.30;;;;;;10410689;28;20038;-58
2022/06/18 13:05:49;;;;;;;18.27;9.07;;;24.50;67.20;;;;;;10416795;28;20041;-57
2022/06/18 13:11:05;;;;;;;11.43;8.35;;;24.50;67.00;;;;;;10418649;28;20037;-58
2022/06/18 13:16:34;;;;;;;19.83;10.48;;;24.50;67.50;;;;;;10418756;28;20038;-57
2022/06/18 13:21:35;;;;;;;16.77;9.17;;;24.50;67.00;;;;;;10414798;28;20033;-57
2022/06/18 13:32:37;;;;;;;16.27;8.88;;;24.50;66.80;;;;;;10416959;28;20037;-58
2022/06/18 13:37:52;;;;;;;13.43;8.05;;;24.50;66.90;;;;;;10414048;28;20085;-58
2022/06/18 13:43:31;;;;;;;11.43;7.78;;;24.50;66.80;;;;;;10414656;28;20049;-58
2022/06/18 13:49:16;;;;;;;11.98;7.95;;;24.50;66.90;;;;;;10421909;28;20037;-58
2022/06/18 13:54:18;;;;;;;12.00;7.72;;;24.40;66.80;;;;;;10414326;28;20076;-58
2022/06/18 13:59:20;;;;;;;14.60;8.13;;;24.40;66.80;;;;;;10417479;28;20037;-58
2022/06/18 14:04:36;;;;;;;9.00;7.20;;;24.40;66.80;;;;;;10416925;28;20115;-58
2022/06/18 14:09:52;;;;;;;9.07;7.10;;;24.40;66.80;;;;;;10403637;28;20053;-57
2022/06/18 14:15:26;;;;;;;10.15;6.88;;;24.40;66.80;;;;;;10414428;28;20033;-58
2022/06/18 14:20:33;;;;;;;11.00;6.97;;;24.40;66.80;;;;;;10415084;28;20037;-58
2022/06/18 14:25:56;;;;;;;7.70;6.00;;;24.40;66.80;;;;;;10414950;28;20042;-58
2022/06/18 14:31:34;;;;;;;7.95;7.15;;;24.40;66.80;;;;;;10416536;28;20069;-58
2022/06/18 14:36:44;;;;;;;7.45;6.55;;;24.40;66.80;;;;;;10415270;28;20045;-58
2022/06/18 14:41:48;;;;;;;8.93;6.63;;;24.40;66.80;;;;;;10415873;28;20065;-58
2022/06/18 14:47:15;;;;;;;6.63;5.97;;;24.40;66.80;;;;;;10414010;28;20045;-58
2022/06/18 14:52:45;;;;;;;7.93;7.13;;;24.40;66.70;;;;;;10425120;28;20029;-58
2022/06/18 14:57:49;;;;;;;6.65;5.63;;;24.40;66.70;;;;;;10405447;28;20099;-58
2022/06/18 15:03:29;;;;;;;7.28;5.95;;;24.40;66.70;;;;;;10414521;28;20088;-58
2022/06/18 15:08:30;;;;;;;7.80;6.63;;;24.40;66.70;;;;;;10401418;28;20087;-58
2022/06/18 15:13:39;;;;;;;8.18;5.50;;;24.40;66.80;;;;;;10414241;28;20440;-58
2022/06/18 15:24:13;;;;;;;7.45;6.25;;;24.40;66.80;;;;;;10406805;28;20123;-59
2022/06/18 15:29:25;;;;;;;6.03;5.35;;;24.40;67.00;;;;;;10411626;28;20042;-59
2022/06/18 15:34:29;;;;;;;7.22;5.45;;;24.40;67.00;;;;;;10403162;28;20152;-59
2022/06/18 15:39:33;;;;;;;5.97;4.78;;;24.40;67.40;;;;;;10411367;28;20051;-59
2022/06/18 15:44:35;;;;;;;5.85;4.30;;;24.50;68.20;;;;;;10409461;28;20033;-59
2022/06/18 15:49:42;;;;;;;5.15;4.15;;;24.50;68.40;;;;;;10414798;28;20107;-59
2022/06/18 15:54:45;;;;;;;8.18;4.30;;;24.50;68.70;;;;;;10412510;28;20470;-59
2022/06/18 15:59:54;;;;;;;7.53;4.10;;;24.50;68.20;;;;;;10410000;28;20033;-60
2022/06/18 16:04:56;;;;;;;8.07;5.20;;;24.50;68.00;;;;;;10393050;28;20816;-60
2022/06/18 16:10:04;;;;;;;27.70;24.02;;;24.60;68.20;;;;;;10398517;28;20041;-61
2022/06/18 16:15:30;;;;;;;9.97;6.43;;;24.80;68.50;;;;;;10411639;28;20041;-61
2022/06/18 16:20:31;;;;;;;10.48;5.53;;;24.80;68.10;;;;;;10412858;28;20065;-62
2022/06/18 16:25:44;;;;;;;16.70;5.53;;;24.80;68.00;;;;;;10411338;28;20095;-62
2022/06/18 16:30:51;;;;;;;10.95;4.97;;;24.70;68.20;;;;;;10411559;28;20410;-63
2022/06/18 16:36:07;;;;;;;7.45;5.63;;;24.70;68.00;;;;;;10400160;28;20045;-60
2022/06/18 16:41:13;;;;;;;10.30;5.88;;;24.70;68.10;;;;;;10413039;28;20138;-63
2022/06/18 16:46:20;;;;;;;7.25;5.20;;;24.60;68.00;;;;;;10419034;28;20037;-63
2022/06/18 16:51:46;;;;;;;7.80;4.97;;;24.60;67.90;;;;;;10429831;28;20026;-63
2022/06/18 16:56:48;;;;;;;8.38;5.20;;;24.60;67.90;;;;;;10434073;28;20034;-61
2022/06/18 17:01:48;;;;;;;9.57;4.45;;;24.70;68.00;;;;;;10414899;28;20414;-61
2022/06/18 17:06:53;;;;;;;8.48;5.68;;;24.70;68.10;;;;;;10419096;28;20124;-61
2022/06/18 17:11:56;;;;;;;9.05;4.50;;;24.60;67.90;;;;;;10418336;28;20704;-61
2022/06/18 17:16:57;;;;;;;11.65;5.22;;;24.70;68.30;;;;;;10418045;28;20038;-62
2022/06/18 17:21:58;;;;;;;10.38;5.28;;;24.70;68.80;;;;;;10417940;28;20064;-61
2022/06/18 17:32:19;;;;;;;10.05;5.07;;;24.70;68.70;;;;;;10417765;28;20037;-63
2022/06/18 17:37:23;;;;;;;8.50;4.68;;;24.70;68.60;;;;;;10417040;28;20102;-61
2022/06/18 17:42:26;;;;;;;5.47;3.85;;;24.70;68.60;;;;;;10416862;28;20037;-62
2022/06/18 17:47:26;;;;;;;9.07;5.45;;;24.70;68.60;;;;;;10416185;28;20041;-60
2022/06/18 17:52:27;;;;;;;11.30;4.95;;;24.70;68.60;;;;;;10415243;28;20029;-59
2022/06/18 17:57:28;;;;;;;11.13;4.82;;;24.70;68.40;;;;;;10416481;28;20088;-60
2022/06/18 18:02:31;;;;;;;9.68;5.00;;;24.70;68.50;;;;;;10417548;28;20112;-60
2022/06/18 18:07:32;;;;;;;5.18;3.65;;;24.70;68.40;;;;;;10416239;28;20029;-61
2022/06/18 18:12:33;;;;;;;9.45;4.07;;;24.70;68.10;;;;;;10417091;28;20036;-59
2022/06/18 18:17:35;;;;;;;8.93;3.65;;;24.70;67.90;;;;;;10417100;28;20468;-62
2022/06/18 18:22:35;;;;;;;5.35;3.75;;;24.90;67.30;;;;;;10415506;28;20064;-62
2022/06/18 18:27:39;;;;;;;6.78;3.80;;;24.90;67.40;;;;;;10415444;28;20037;-62
2022/06/18 18:32:40;;;;;;;7.38;4.60;;;24.80;67.80;;;;;;10414823;28;20029;-61
2022/06/18 18:37:41;;;;;;;6.07;4.07;;;24.80;67.70;;;;;;10431413;28;20136;-62
2022/06/18 18:42:42;;;;;;;8.75;3.90;;;24.70;67.70;;;;;;10414169;28;20073;-61
2022/06/18 18:47:43;;;;;;;7.60;3.58;;;24.70;67.60;;;;;;10393767;28;20124;-61
2022/06/18 18:52:44;;;;;;;8.50;3.47;;;24.80;67.60;;;;;;10411889;28;20035;-65
2022/06/18 18:57:46;;;;;;;8.05;3.42;;;24.70;67.40;;;;;;10414908;28;20029;-63
2022/06/18 19:02:47;;;;;;;7.65;3.40;;;24.70;66.90;;;;;;10413712;28;20037;-56
2022/06/18 19:07:49;;;;;;;9.93;3.47;;;24.70;66.70;;;;;;10411650;28;20462;-58
2022/06/18 19:13:02;;;;;;;6.88;2.90;;;24.70;66.50;;;;;;10414135;28;20369;-56
2022/06/18 19:18:04;;;;;;;4.70;2.60;;;24.70;66.10;;;;;;10412644;28;20025;-56
2022/06/18 19:23:05;;;;;;;6.32;2.95;;;24.70;66.30;;;;;;10412026;28;20495;-56
2022/06/18 19:28:18;;;;;;;5.93;2.88;;;24.70;65.90;;;;;;10413497;28;20379;-55
2022/06/18 19:33:24;;;;;;;4.60;2.55;;;24.70;65.20;;;;;;10409119;28;20436;-54
2022/06/18 19:38:28;;;;;;;6.15;2.33;;;24.70;65.30;;;;;;10413178;28;20030;-54
2022/06/18 19:43:29;;;;;;;5.65;2.83;;;24.70;64.20;;;;;;10410945;28;20039;-53
2022/06/18 19:48:31;;;;;;;9.23;2.80;;;24.70;64.80;;;;;;10414070;28;20029;-55
2022/06/18 19:53:32;;;;;;;7.00;2.55;;;24.70;64.80;;;;;;10413033;28;20441;-57
2022/06/18 19:58:33;;;;;;;5.78;2.25;;;24.70;65.30;;;;;;10412975;28;20104;-55
2022/06/18 20:03:34;;;;;;;9.25;2.20;;;24.70;65.30;;;;;;10410985;28;20075;-55
2022/06/18 20:08:35;;;;;;;5.78;2.50;;;24.70;64.90;;;;;;10395723;28;20478;-57
2022/06/18 20:13:36;;;;;;;5.00;1.90;;;24.70;65.20;;;;;;10409636;28;20025;-55
2022/06/18 20:18:39;;;;;;;4.55;2.25;;;24.70;64.80;;;;;;10410732;28;20112;-55
2022/06/18 20:23:41;;;;;;;5.45;2.70;;;24.70;64.80;;;;;;10405199;28;20029;-55
2022/06/18 20:28:43;;;;;;;4.25;1.80;;;24.70;64.70;;;;;;10411646;28;20033;-55
2022/06/18 20:33:44;;;;;;;6.78;2.35;;;24.60;64.60;;;;;;10412025;28;20425;-55
2022/06/18 20:38:49;;;;;;;3.38;1.80;;;24.60;64.60;;;;;;10408197;28;20421;-55
2022/06/18 20:43:55;;;;;;;6.82;2.60;;;24.60;64.50;;;;;;10412223;28;20120;-55
2022/06/18 20:48:57;;;;;;;11.13;4.70;;;24.60;64.40;;;;;;10420554;28;20040;-55
2022/06/18 20:57:06;;;;;;;5.22;1.92;;;24.60;64.50;;;;;;10410438;28;20113;-55
2022/06/18 20:59:19;;;;;;;4.07;2.15;;;24.60;64.50;;;;;;10396477;28;20055;-54
2022/06/18 21:04:20;;;;;;;2.40;2.00;;;24.60;64.70;;;;;;10423475;28;20036;-55
2022/06/18 21:09:21;;;;;;;3.10;1.90;;;24.60;64.50;;;;;;10407641;28;20032;-54
2022/06/18 21:14:22;;;;;;;3.20;1.73;;;24.60;64.50;;;;;;10411654;28;20100;-55
2022/06/18 21:19:23;;;;;;;3.38;1.88;;;24.60;64.30;;;;;;10410772;28;20030;-55
2022/06/18 21:24:33;;;;;;;8.10;2.50;;;24.60;64.30;;;;;;10413611;28;20025;-55
2022/06/18 21:29:33;;;;;;;3.30;1.92;;;24.60;64.20;;;;;;10418805;28;20453;-55
2022/06/18 21:39:58;;;;;;;4.43;2.03;;;24.50;64.60;;;;;;10397342;28;20128;-55
2022/06/18 21:45:02;;;;;;;3.67;1.80;;;24.60;64.40;;;;;;10392762;28;20080;-53
2022/06/18 21:50:04;;;;;;;4.35;1.85;;;24.50;64.50;;;;;;10419266;28;20040;-55
2022/06/18 21:55:06;;;;;;;4.32;2.05;;;24.50;64.00;;;;;;10417900;28;20065;-55
2022/06/18 22:00:25;;;;;;;3.67;1.70;;;24.50;63.90;;;;;;10416012;28;20032;-55
2022/06/18 22:05:27;;;;;;;;;;;24.60;63.90;;;;;;10412657;28;20121;-55
2022/06/18 22:10:30;;;;;;;3.30;1.83;;;24.50;64.00;;;;;;10412255;28;19913;-55
2022/06/18 22:20:51;;;;;;;5.03;2.00;;;24.50;64.00;;;;;;10405468;28;20029;-54
2022/06/18 22:25:54;;;;;;;2.97;1.95;;;24.50;64.00;;;;;;10416901;28;20026;-54
2022/06/18 22:30:55;;;;;;;3.72;1.95;;;24.50;63.80;;;;;;10416430;28;20032;-54
2022/06/18 22:35:55;;;;;;;3.95;1.90;;;24.50;63.80;;;;;;10414264;28;20529;-54
2022/06/18 22:41:00;;;;;;;5.07;2.05;;;24.50;63.80;;;;;;10414762;28;20099;-55
2022/06/18 22:46:01;;;;;;;3.58;1.88;;;24.50;63.50;;;;;;10414404;28;20112;-55
2022/06/18 22:51:02;;;;;;;3.50;1.52;;;24.50;63.50;;;;;;10424974;28;20116;-54
2022/06/18 22:56:14;;;;;;;2.50;1.38;;;24.50;63.50;;;;;;10414434;28;20033;-55
2022/06/18 23:01:15;;;;;;;2.65;1.60;;;24.40;63.70;;;;;;10414236;28;20383;-55
2022/06/18 23:06:19;;;;;;;3.30;1.88;;;24.40;63.30;;;;;;10415073;28;20057;-52
2022/06/18 23:16:42;;;;;;;3.75;1.90;;;24.40;63.20;;;;;;10413881;28;20045;-55
2022/06/18 23:21:44;;;;;;;2.80;1.63;;;24.40;63.20;;;;;;10414568;28;20070;-55
2022/06/18 23:26:44;;;;;;;3.90;1.58;;;24.40;63.50;;;;;;10413206;28;20025;-54
2022/06/18 23:31:45;;;;;;;2.95;1.50;;;24.40;63.10;;;;;;10414033;28;20599;-53
2022/06/18 23:36:46;;;;;;;2.88;1.58;;;24.40;62.90;;;;;;10412760;28;20057;-55
2022/06/18 23:41:47;;;;;;;2.58;1.65;;;24.40;63.00;;;;;;10413878;28;20501;-54
2022/06/18 23:46:52;;;;;;;4.72;1.80;;;24.40;63.10;;;;;;10413314;28;20038;-55
2022/06/18 23:51:56;;;;;;;2.22;1.27;;;24.30;62.90;;;;;;10422773;28;20505;-55
2022/06/18 23:57:06;;;;;;;3.30;1.30;;;24.40;63.10;;;;;;10413291;28;20108;-54
